sensor_id;sensor_type;location;lat;lon;timestamp;pressure;altitude;pressure_sealevel;temperature;humidity
22580;BME280;11456;47.030;15.396;2023-05-15T00:00:39;96890.41;;;11.77;100.00
22580;BME280;11456;47.030;15.396;2023-05-15T00:03:05;96881.19;;;11.94;100.00
22580;BME280;11456;47.030;15.396;2023-05-15T00:05:32;96876.75;;;12.01;100.00
22580;BME280;11456;47.030;15.396;2023-05-15T00:07:59;96882.50;;;12.21;100.00
22580;BME280;11456;47.030;15.396;2023-05-15T00:10:25;96873.78;;;12.34;100.00
22580;BME280;11456;47.030;15.396;2023-05-15T00:12:52;96858.78;;;12.31;100.00
22580;BME280;11456;47.030;15.396;2023-05-15T00:15:18;96842.00;;;12.36;100.00
22580;BME280;11456;47.030;15.396;2023-05-15T00:17:45;96836.31;;;12.31;100.00
22580;BME280;11456;47.030;15.396;2023-05-15T00:20:11;96842.47;;;12.25;100.00
22580;BME280;11456;47.030;15.396;2023-05-15T00:22:38;96832.91;;;12.37;100.00
22580;BME280;11456;47.030;15.396;2023-05-15T00:25:05;96842.22;;;12.34;100.00
22580;BME280;11456;47.030;15.396;2023-05-15T00:27:31;96848.09;;;12.38;100.00
22580;BME280;11456;47.030;15.396;2023-05-15T00:29:58;96845.16;;;12.25;100.00
22580;BME280;11456;47.030;15.396;2023-05-15T00:32:25;96837.78;;;12.41;100.00
22580;BME280;11456;47.030;15.396;2023-05-15T00:34:51;96826.03;;;12.49;100.00
22580;BME280;11456;47.030;15.396;2023-05-15T00:37:18;96832.09;;;12.51;100.00
22580;BME280;11456;47.030;15.396;2023-05-15T00:39:44;96831.41;;;12.49;100.00
22580;BME280;11456;47.030;15.396;2023-05-15T00:42:11;96842.72;;;12.53;100.00
22580;BME280;11456;47.030;15.396;2023-05-15T00:44:38;96848.97;;;12.53;100.00
22580;BME280;11456;47.030;15.396;2023-05-15T00:47:05;96841.22;;;12.50;100.00
22580;BME280;11456;47.030;15.396;2023-05-15T00:49:33;96826.69;;;12.51;100.00
22580;BME280;11456;47.030;15.396;2023-05-15T00:52:00;96826.97;;;12.56;100.00
22580;BME280;11456;47.030;15.396;2023-05-15T00:54:29;96827.88;;;12.49;100.00
22580;BME280;11456;47.030;15.396;2023-05-15T00:56:55;96834.13;;;12.49;100.00
22580;BME280;11456;47.030;15.396;2023-05-15T00:59:32;96836.81;;;12.34;100.00
22580;BME280;11456;47.030;15.396;2023-05-15T01:01:59;96846.03;;;12.02;100.00
22580;BME280;11456;47.030;15.396;2023-05-15T01:04:26;96840.53;;;11.65;100.00
22580;BME280;11456;47.030;15.396;2023-05-15T01:06:53;96836.66;;;11.68;100.00
22580;BME280;11456;47.030;15.396;2023-05-15T01:09:20;96826.81;;;11.83;100.00
22580;BME280;11456;47.030;15.396;2023-05-15T01:11:49;96827.50;;;11.99;100.00
22580;BME280;11456;47.030;15.396;2023-05-15T01:14:18;96830.47;;;11.90;100.00
22580;BME280;11456;47.030;15.396;2023-05-15T01:16:45;96839.97;;;12.00;100.00
22580;BME280;11456;47.030;15.396;2023-05-15T01:19:11;96827.03;;;11.96;100.00
22580;BME280;11456;47.030;15.396;2023-05-15T01:29:43;96826.97;;;11.81;100.00
22580;BME280;11456;47.030;15.396;2023-05-15T01:32:18;96811.38;;;11.91;100.00
22580;BME280;11456;47.030;15.396;2023-05-15T01:37:12;96800.13;;;11.88;100.00
22580;BME280;11456;47.030;15.396;2023-05-15T01:39:40;96805.78;;;11.93;100.00
22580;BME280;11456;47.030;15.396;2023-05-15T01:42:08;96802.56;;;11.97;100.00
22580;BME280;11456;47.030;15.396;2023-05-15T01:44:37;96803.72;;;12.03;100.00
22580;BME280;11456;47.030;15.396;2023-05-15T01:47:07;96800.50;;;11.99;100.00
22580;BME280;11456;47.030;15.396;2023-05-15T01:49:35;96799.56;;;11.92;100.00
22580;BME280;11456;47.030;15.396;2023-05-15T01:54:35;96796.56;;;11.87;100.00
22580;BME280;11456;47.030;15.396;2023-05-15T01:57:02;96804.09;;;11.69;100.00
22580;BME280;11456;47.030;15.396;2023-05-15T01:59:29;96810.31;;;11.78;100.00
22580;BME280;11456;47.030;15.396;2023-05-15T02:01:57;96818.25;;;11.71;100.00
22580;BME280;11456;47.030;15.396;2023-05-15T02:04:24;96814.22;;;11.75;100.00
22580;BME280;11456;47.030;15.396;2023-05-15T02:06:51;96809.41;;;11.85;100.00
22580;BME280;11456;47.030;15.396;2023-05-15T02:09:19;96809.09;;;11.80;100.00
22580;BME280;11456;47.030;15.396;2023-05-15T02:11:46;96801.38;;;11.77;100.00
22580;BME280;11456;47.030;15.396;2023-05-15T02:14:13;96804.38;;;11.82;100.00
22580;BME280;11456;47.030;15.396;2023-05-15T02:16:40;96802.69;;;11.81;100.00
22580;BME280;11456;47.030;15.396;2023-05-15T02:19:06;96812.03;;;11.71;100.00
22580;BME280;11456;47.030;15.396;2023-05-15T02:21:33;96814.91;;;11.69;100.00
22580;BME280;11456;47.030;15.396;2023-05-15T02:24:00;96810.53;;;11.45;100.00
22580;BME280;11456;47.030;15.396;2023-05-15T02:29:12;96790.38;;;11.56;100.00
22580;BME280;11456;47.030;15.396;2023-05-15T02:36:37;96782.50;;;11.46;100.00
22580;BME280;11456;47.030;15.396;2023-05-15T02:39:05;96793.13;;;10.94;100.00
22580;BME280;11456;47.030;15.396;2023-05-15T02:41:34;96798.63;;;10.62;100.00
22580;BME280;11456;47.030;15.396;2023-05-15T02:44:02;96807.47;;;10.87;100.00
22580;BME280;11456;47.030;15.396;2023-05-15T02:46:29;96801.13;;;11.02;100.00
22580;BME280;11456;47.030;15.396;2023-05-15T02:48:57;96797.84;;;11.23;100.00
22580;BME280;11456;47.030;15.396;2023-05-15T02:51:24;96790.28;;;11.18;100.00
22580;BME280;11456;47.030;15.396;2023-05-15T02:53:51;96794.72;;;11.11;100.00
22580;BME280;11456;47.030;15.396;2023-05-15T02:56:17;96794.44;;;10.98;100.00
22580;BME280;11456;47.030;15.396;2023-05-15T02:58:43;96794.59;;;10.97;100.00
22580;BME280;11456;47.030;15.396;2023-05-15T03:01:10;96791.78;;;10.90;100.00
22580;BME280;11456;47.030;15.396;2023-05-15T03:03:37;96794.44;;;10.98;100.00
22580;BME280;11456;47.030;15.396;2023-05-15T03:06:04;96790.31;;;10.79;100.00
22580;BME280;11456;47.030;15.396;2023-05-15T03:08:30;96788.47;;;10.80;100.00
22580;BME280;11456;47.030;15.396;2023-05-15T03:10:57;96796.94;;;10.69;100.00
22580;BME280;11456;47.030;15.396;2023-05-15T03:13:23;96807.66;;;10.77;100.00
22580;BME280;11456;47.030;15.396;2023-05-15T03:15:50;96810.25;;;10.62;100.00
22580;BME280;11456;47.030;15.396;2023-05-15T03:18:17;96812.44;;;10.51;100.00
22580;BME280;11456;47.030;15.396;2023-05-15T03:20:46;96807.94;;;10.43;100.00
22580;BME280;11456;47.030;15.396;2023-05-15T03:23:13;96814.34;;;10.42;100.00
22580;BME280;11456;47.030;15.396;2023-05-15T03:25:40;96825.63;;;10.29;100.00
22580;BME280;11456;47.030;15.396;2023-05-15T03:28:06;96829.66;;;10.25;100.00
22580;BME280;11456;47.030;15.396;2023-05-15T03:30:33;96822.78;;;10.23;100.00
22580;BME280;11456;47.030;15.396;2023-05-15T03:32:59;96808.47;;;10.06;100.00
22580;BME280;11456;47.030;15.396;2023-05-15T03:35:29;96809.81;;;10.02;100.00
22580;BME280;11456;47.030;15.396;2023-05-15T03:37:57;96807.44;;;10.31;100.00
22580;BME280;11456;47.030;15.396;2023-05-15T03:40:24;96815.50;;;10.39;100.00
22580;BME280;11456;47.030;15.396;2023-05-15T03:42:50;96813.16;;;10.36;100.00
22580;BME280;11456;47.030;15.396;2023-05-15T03:45:18;96813.81;;;10.38;100.00
22580;BME280;11456;47.030;15.396;2023-05-15T03:47:47;96820.25;;;10.29;100.00
22580;BME280;11456;47.030;15.396;2023-05-15T03:50:14;96827.63;;;10.35;100.00
22580;BME280;11456;47.030;15.396;2023-05-15T03:52:40;96824.59;;;10.38;100.00
22580;BME280;11456;47.030;15.396;2023-05-15T03:55:07;96832.69;;;10.30;100.00
22580;BME280;11456;47.030;15.396;2023-05-15T03:57:34;96836.72;;;10.10;100.00
22580;BME280;11456;47.030;15.396;2023-05-15T04:00:01;96841.09;;;10.35;100.00
22580;BME280;11456;47.030;15.396;2023-05-15T04:02:37;96827.63;;;10.27;100.00
22580;BME280;11456;47.030;15.396;2023-05-15T04:05:04;96831.16;;;10.12;100.00
22580;BME280;11456;47.030;15.396;2023-05-15T04:07:31;96830.34;;;10.19;100.00
22580;BME280;11456;47.030;15.396;2023-05-15T04:09:58;96831.69;;;10.23;100.00
22580;BME280;11456;47.030;15.396;2023-05-15T04:12:28;96832.66;;;10.14;100.00
22580;BME280;11456;47.030;15.396;2023-05-15T04:14:58;96822.22;;;10.43;100.00
22580;BME280;11456;47.030;15.396;2023-05-15T04:17:24;96818.50;;;11.00;100.00
22580;BME280;11456;47.030;15.396;2023-05-15T04:19:51;96817.97;;;11.04;100.00
22580;BME280;11456;47.030;15.396;2023-05-15T04:22:18;96815.59;;;11.09;100.00
22580;BME280;11456;47.030;15.396;2023-05-15T04:24:44;96823.41;;;10.96;100.00
22580;BME280;11456;47.030;15.396;2023-05-15T04:27:10;96825.03;;;11.13;100.00
22580;BME280;11456;47.030;15.396;2023-05-15T04:29:37;96822.91;;;11.32;100.00
22580;BME280;11456;47.030;15.396;2023-05-15T04:32:04;96824.59;;;11.33;100.00
22580;BME280;11456;47.030;15.396;2023-05-15T04:34:30;96822.78;;;11.48;100.00
22580;BME280;11456;47.030;15.396;2023-05-15T04:36:57;96815.38;;;11.50;100.00
22580;BME280;11456;47.030;15.396;2023-05-15T04:39:23;96827.59;;;11.38;100.00
22580;BME280;11456;47.030;15.396;2023-05-15T04:41:50;96824.88;;;11.38;100.00
22580;BME280;11456;47.030;15.396;2023-05-15T04:44:16;96825.53;;;11.40;100.00
22580;BME280;11456;47.030;15.396;2023-05-15T04:46:43;96820.75;;;11.50;100.00
22580;BME280;11456;47.030;15.396;2023-05-15T04:49:09;96827.22;;;11.10;100.00
22580;BME280;11456;47.030;15.396;2023-05-15T04:51:36;96828.63;;;10.98;100.00
22580;BME280;11456;47.030;15.396;2023-05-15T04:54:02;96832.06;;;11.14;100.00
22580;BME280;11456;47.030;15.396;2023-05-15T04:56:29;96834.13;;;11.12;100.00
22580;BME280;11456;47.030;15.396;2023-05-15T04:58:55;96824.38;;;11.03;100.00
22580;BME280;11456;47.030;15.396;2023-05-15T05:01:22;96828.47;;;11.53;100.00
22580;BME280;11456;47.030;15.396;2023-05-15T05:03:48;96824.88;;;11.60;100.00
22580;BME280;11456;47.030;15.396;2023-05-15T05:06:15;96830.03;;;11.78;100.00
22580;BME280;11456;47.030;15.396;2023-05-15T05:08:42;96822.59;;;12.03;100.00
22580;BME280;11456;47.030;15.396;2023-05-15T05:11:08;96821.53;;;11.89;100.00
22580;BME280;11456;47.030;15.396;2023-05-15T05:13:35;96822.19;;;12.29;100.00
22580;BME280;11456;47.030;15.396;2023-05-15T05:16:01;96820.66;;;12.12;100.00
22580;BME280;11456;47.030;15.396;2023-05-15T05:18:29;96835.03;;;12.27;100.00
22580;BME280;11456;47.030;15.396;2023-05-15T05:21:02;96819.53;;;12.58;100.00
22580;BME280;11456;47.030;15.396;2023-05-15T05:23:29;96828.09;;;12.47;100.00
22580;BME280;11456;47.030;15.396;2023-05-15T05:25:55;96818.63;;;12.14;100.00
22580;BME280;11456;47.030;15.396;2023-05-15T05:28:22;96822.69;;;12.47;100.00
22580;BME280;11456;47.030;15.396;2023-05-15T05:30:49;96817.16;;;12.26;100.00
22580;BME280;11456;47.030;15.396;2023-05-15T05:33:15;96823.31;;;12.49;100.00
22580;BME280;11456;47.030;15.396;2023-05-15T05:35:42;96821.19;;;13.03;100.00
22580;BME280;11456;47.030;15.396;2023-05-15T05:38:08;96821.78;;;13.13;98.20
22580;BME280;11456;47.030;15.396;2023-05-15T05:40:35;96811.91;;;13.56;97.82
22580;BME280;11456;47.030;15.396;2023-05-15T05:43:03;96815.78;;;13.69;96.07
22580;BME280;11456;47.030;15.396;2023-05-15T05:45:29;96815.28;;;14.01;94.81
22580;BME280;11456;47.030;15.396;2023-05-15T05:47:56;96816.75;;;13.82;94.45
22580;BME280;11456;47.030;15.396;2023-05-15T05:50:23;96802.03;;;14.13;91.47
22580;BME280;11456;47.030;15.396;2023-05-15T05:52:49;96798.13;;;14.22;90.46
22580;BME280;11456;47.030;15.396;2023-05-15T05:55:16;96806.31;;;14.00;89.53
22580;BME280;11456;47.030;15.396;2023-05-15T05:57:42;96804.81;;;13.98;90.23
22580;BME280;11456;47.030;15.396;2023-05-15T06:00:09;96805.56;;;14.62;89.68
22580;BME280;11456;47.030;15.396;2023-05-15T06:02:36;96801.00;;;14.63;90.77
22580;BME280;11456;47.030;15.396;2023-05-15T06:05:03;96805.47;;;14.77;86.47
22580;BME280;11456;47.030;15.396;2023-05-15T06:07:31;96798.50;;;15.02;86.12
22580;BME280;11456;47.030;15.396;2023-05-15T06:09:58;96800.19;;;15.03;85.91
22580;BME280;11456;47.030;15.396;2023-05-15T06:12:25;96806.06;;;15.13;83.63
22580;BME280;11456;47.030;15.396;2023-05-15T06:14:53;96804.91;;;15.29;84.18
22580;BME280;11456;47.030;15.396;2023-05-15T06:17:19;96803.38;;;15.61;82.71
22580;BME280;11456;47.030;15.396;2023-05-15T06:19:46;96799.06;;;15.99;81.97
22580;BME280;11456;47.030;15.396;2023-05-15T06:22:13;96802.19;;;15.96;79.27
22580;BME280;11456;47.030;15.396;2023-05-15T06:24:39;96799.91;;;16.46;81.47
22580;BME280;11456;47.030;15.396;2023-05-15T06:27:06;96803.88;;;16.30;79.10
22580;BME280;11456;47.030;15.396;2023-05-15T06:29:32;96800.13;;;16.05;79.51
22580;BME280;11456;47.030;15.396;2023-05-15T06:31:59;96794.59;;;15.59;78.34
22580;BME280;11456;47.030;15.396;2023-05-15T06:34:25;96801.69;;;15.53;80.40
22580;BME280;11456;47.030;15.396;2023-05-15T06:36:52;96801.53;;;15.81;80.96
22580;BME280;11456;47.030;15.396;2023-05-15T06:39:18;96803.00;;;15.90;77.67
22580;BME280;11456;47.030;15.396;2023-05-15T06:41:45;96810.13;;;15.91;76.81
22580;BME280;11456;47.030;15.396;2023-05-15T06:44:11;96814.31;;;16.20;74.29
22580;BME280;11456;47.030;15.396;2023-05-15T06:46:38;96812.25;;;16.68;71.94
22580;BME280;11456;47.030;15.396;2023-05-15T06:49:04;96806.81;;;16.68;69.75
22580;BME280;11456;47.030;15.396;2023-05-15T06:51:31;96803.81;;;17.03;69.60
22580;BME280;11456;47.030;15.396;2023-05-15T06:53:57;96811.00;;;16.51;68.32
22580;BME280;11456;47.030;15.396;2023-05-15T06:56:24;96801.97;;;16.83;66.88
22580;BME280;11456;47.030;15.396;2023-05-15T06:58:51;96807.16;;;17.05;69.60
22580;BME280;11456;47.030;15.396;2023-05-15T07:01:17;96803.78;;;17.16;69.16
22580;BME280;11456;47.030;15.396;2023-05-15T07:03:44;96812.22;;;16.95;69.57
22580;BME280;11456;47.030;15.396;2023-05-15T07:06:10;96812.16;;;17.21;65.51
22580;BME280;11456;47.030;15.396;2023-05-15T07:08:37;96813.22;;;17.71;64.46
22580;BME280;11456;47.030;15.396;2023-05-15T07:11:03;96820.00;;;17.42;68.46
22580;BME280;11456;47.030;15.396;2023-05-15T07:13:30;96826.34;;;17.23;68.43
22580;BME280;11456;47.030;15.396;2023-05-15T07:15:56;96823.34;;;17.44;65.54
22580;BME280;11456;47.030;15.396;2023-05-15T07:18:23;96813.66;;;17.61;65.84
22580;BME280;11456;47.030;15.396;2023-05-15T07:20:49;96806.97;;;17.64;69.05
22580;BME280;11456;47.030;15.396;2023-05-15T07:23:16;96812.78;;;17.74;66.12
22580;BME280;11456;47.030;15.396;2023-05-15T07:25:43;96805.81;;;17.85;64.17
22580;BME280;11456;47.030;15.396;2023-05-15T07:28:11;96805.78;;;18.23;60.46
22580;BME280;11456;47.030;15.396;2023-05-15T07:30:37;96803.22;;;18.53;57.33
22580;BME280;11456;47.030;15.396;2023-05-15T07:33:04;96801.25;;;18.10;58.33
22580;BME280;11456;47.030;15.396;2023-05-15T07:35:31;96797.50;;;18.61;61.02
22580;BME280;11456;47.030;15.396;2023-05-15T07:37:57;96795.16;;;17.77;60.61
22580;BME280;11456;47.030;15.396;2023-05-15T07:40:24;96800.97;;;18.18;60.34
22580;BME280;11456;47.030;15.396;2023-05-15T07:42:50;96800.38;;;18.16;59.49
22580;BME280;11456;47.030;15.396;2023-05-15T07:45:17;96807.88;;;18.21;59.25
22580;BME280;11456;47.030;15.396;2023-05-15T07:47:44;96809.47;;;19.46;55.78
22580;BME280;11456;47.030;15.396;2023-05-15T07:50:12;96808.16;;;19.96;52.00
22580;BME280;11456;47.030;15.396;2023-05-15T07:52:38;96809.88;;;19.25;54.01
22580;BME280;11456;47.030;15.396;2023-05-15T07:55:05;96806.81;;;18.96;56.58
22580;BME280;11456;47.030;15.396;2023-05-15T07:57:32;96804.88;;;18.54;55.40
22580;BME280;11456;47.030;15.396;2023-05-15T07:59:58;96801.75;;;20.56;49.57
22580;BME280;11456;47.030;15.396;2023-05-15T08:02:25;96795.84;;;20.82;49.34
22580;BME280;11456;47.030;15.396;2023-05-15T08:04:51;96808.81;;;21.10;49.25
22580;BME280;11456;47.030;15.396;2023-05-15T08:07:18;96807.88;;;20.28;50.24
22580;BME280;11456;47.030;15.396;2023-05-15T08:09:44;96817.13;;;21.38;50.41
22580;BME280;11456;47.030;15.396;2023-05-15T08:12:18;96816.38;;;22.06;52.83
22580;BME280;11456;47.030;15.396;2023-05-15T08:14:50;96817.44;;;22.33;45.99
22580;BME280;11456;47.030;15.396;2023-05-15T08:17:17;96821.50;;;21.51;48.85
22580;BME280;11456;47.030;15.396;2023-05-15T08:19:44;96820.25;;;21.30;48.54
22580;BME280;11456;47.030;15.396;2023-05-15T08:22:10;96825.28;;;22.13;48.78
22580;BME280;11456;47.030;15.396;2023-05-15T08:24:37;96824.69;;;20.43;50.41
22580;BME280;11456;47.030;15.396;2023-05-15T08:27:04;96822.94;;;22.05;49.27
22580;BME280;11456;47.030;15.396;2023-05-15T08:29:31;96829.19;;;22.17;50.57
22580;BME280;11456;47.030;15.396;2023-05-15T08:31:58;96833.97;;;23.17;47.18
22580;BME280;11456;47.030;15.396;2023-05-15T08:34:24;96840.38;;;22.27;45.56
22580;BME280;11456;47.030;15.396;2023-05-15T08:36:51;96851.91;;;21.49;48.39
22580;BME280;11456;47.030;15.396;2023-05-15T08:39:18;96850.03;;;18.99;55.59
22580;BME280;11456;47.030;15.396;2023-05-15T08:44:13;96851.34;;;18.40;59.63
22580;BME280;11456;47.030;15.396;2023-05-15T08:46:40;96857.59;;;18.48;55.96
22580;BME280;11456;47.030;15.396;2023-05-15T08:49:12;96866.34;;;18.18;61.95
22580;BME280;11456;47.030;15.396;2023-05-15T08:51:40;96869.81;;;17.49;60.87
22580;BME280;11456;47.030;15.396;2023-05-15T08:54:07;96871.88;;;17.54;64.25
22580;BME280;11456;47.030;15.396;2023-05-15T08:56:33;96871.72;;;18.00;63.36
22580;BME280;11456;47.030;15.396;2023-05-15T08:59:01;96861.97;;;17.21;67.45
22580;BME280;11456;47.030;15.396;2023-05-15T09:01:27;96866.94;;;17.31;70.14
22580;BME280;11456;47.030;15.396;2023-05-15T09:03:54;96858.91;;;17.62;67.42
22580;BME280;11456;47.030;15.396;2023-05-15T09:06:21;96856.44;;;17.41;67.76
22580;BME280;11456;47.030;15.396;2023-05-15T09:08:48;96854.31;;;17.50;66.27
22580;BME280;11456;47.030;15.396;2023-05-15T09:11:15;96849.28;;;17.60;66.37
22580;BME280;11456;47.030;15.396;2023-05-15T09:13:41;96854.78;;;17.47;66.16
22580;BME280;11456;47.030;15.396;2023-05-15T09:16:08;96871.53;;;17.37;68.32
22580;BME280;11456;47.030;15.396;2023-05-15T09:18:35;96867.72;;;17.65;67.06
22580;BME280;11456;47.030;15.396;2023-05-15T09:26:46;96849.13;;;17.93;65.50
22580;BME280;11456;47.030;15.396;2023-05-15T09:29:16;96855.38;;;19.31;58.30
22580;BME280;11456;47.030;15.396;2023-05-15T09:31:47;96851.22;;;18.60;61.87
22580;BME280;11456;47.030;15.396;2023-05-15T09:34:14;96858.81;;;19.01;62.68
22580;BME280;11456;47.030;15.396;2023-05-15T09:36:43;96871.81;;;20.45;57.85
22580;BME280;11456;47.030;15.396;2023-05-15T09:39:10;96850.38;;;20.42;53.16
22580;BME280;11456;47.030;15.396;2023-05-15T09:41:40;96847.88;;;20.11;50.76
22580;BME280;11456;47.030;15.396;2023-05-15T09:44:06;96846.88;;;21.00;49.88
22580;BME280;11456;47.030;15.396;2023-05-15T09:46:46;96853.81;;;21.14;47.12
22580;BME280;11456;47.030;15.396;2023-05-15T09:49:14;96865.63;;;20.50;49.03
22580;BME280;11456;47.030;15.396;2023-05-15T09:51:41;96866.81;;;22.05;51.59
22580;BME280;11456;47.030;15.396;2023-05-15T09:54:13;96856.09;;;22.49;49.96
22580;BME280;11456;47.030;15.396;2023-05-15T09:56:41;96858.59;;;22.33;44.14
22580;BME280;11456;47.030;15.396;2023-05-15T09:59:09;96859.75;;;21.57;46.02
22580;BME280;11456;47.030;15.396;2023-05-15T10:01:37;96854.69;;;22.91;45.66
22580;BME280;11456;47.030;15.396;2023-05-15T10:04:04;96849.78;;;24.30;43.16
22580;BME280;11456;47.030;15.396;2023-05-15T10:06:38;96848.75;;;23.71;43.53
22580;BME280;11456;47.030;15.396;2023-05-15T10:09:08;96853.13;;;22.67;42.78
22580;BME280;11456;47.030;15.396;2023-05-15T10:11:40;96859.34;;;22.91;43.77
22580;BME280;11456;47.030;15.396;2023-05-15T10:14:07;96851.75;;;22.81;39.62
22580;BME280;11456;47.030;15.396;2023-05-15T10:16:35;96869.22;;;20.32;43.71
22580;BME280;11456;47.030;15.396;2023-05-15T10:19:03;96856.31;;;20.09;45.37
22580;BME280;11456;47.030;15.396;2023-05-15T10:21:34;96845.84;;;19.76;47.97
22580;BME280;11456;47.030;15.396;2023-05-15T10:24:01;96840.31;;;19.65;48.61
22580;BME280;11456;47.030;15.396;2023-05-15T10:26:32;96834.16;;;19.69;49.40
22580;BME280;11456;47.030;15.396;2023-05-15T10:29:00;96831.00;;;20.14;51.09
22580;BME280;11456;47.030;15.396;2023-05-15T10:31:27;96807.16;;;22.12;40.98
22580;BME280;11456;47.030;15.396;2023-05-15T10:33:54;96822.53;;;21.22;47.21
22580;BME280;11456;47.030;15.396;2023-05-15T10:36:21;96822.09;;;22.05;44.48
22580;BME280;11456;47.030;15.396;2023-05-15T10:38:48;96821.75;;;21.61;48.36
22580;BME280;11456;47.030;15.396;2023-05-15T10:41:15;96798.91;;;21.55;44.05
22580;BME280;11456;47.030;15.396;2023-05-15T10:43:43;96789.44;;;22.65;39.19
22580;BME280;11456;47.030;15.396;2023-05-15T10:46:11;96795.41;;;22.45;39.96
22580;BME280;11456;47.030;15.396;2023-05-15T10:48:38;96787.66;;;24.71;39.98
22580;BME280;11456;47.030;15.396;2023-05-15T10:51:12;96787.81;;;25.29;37.90
22580;BME280;11456;47.030;15.396;2023-05-15T10:53:38;96795.75;;;21.64;44.30
22580;BME280;11456;47.030;15.396;2023-05-15T10:56:05;96802.66;;;21.66;46.49
22580;BME280;11456;47.030;15.396;2023-05-15T10:58:31;96792.34;;;22.58;42.73
22580;BME280;11456;47.030;15.396;2023-05-15T11:00:59;96793.06;;;24.56;41.48
22580;BME280;11456;47.030;15.396;2023-05-15T11:03:36;96797.16;;;23.78;39.83
22580;BME280;11456;47.030;15.396;2023-05-15T11:06:14;96794.69;;;23.82;40.39
22580;BME280;11456;47.030;15.396;2023-05-15T11:08:41;96785.41;;;23.61;37.88
22580;BME280;11456;47.030;15.396;2023-05-15T11:21:47;96810.66;;;24.55;36.43
22580;BME280;11456;47.030;15.396;2023-05-15T11:24:18;96818.91;;;25.61;34.63
22580;BME280;11456;47.030;15.396;2023-05-15T11:26:45;96801.84;;;26.82;32.82
22580;BME280;11456;47.030;15.396;2023-05-15T11:29:18;96793.03;;;26.90;32.13
22580;BME280;11456;47.030;15.396;2023-05-15T11:31:44;96793.03;;;26.90;29.78
22580;BME280;11456;47.030;15.396;2023-05-15T11:34:11;96799.09;;;27.18;33.60
22580;BME280;11456;47.030;15.396;2023-05-15T11:36:38;96800.59;;;26.07;32.56
22580;BME280;11456;47.030;15.396;2023-05-15T11:39:13;96792.38;;;27.64;28.13
22580;BME280;11456;47.030;15.396;2023-05-15T11:41:40;96796.88;;;26.74;31.46
22580;BME280;11456;47.030;15.396;2023-05-15T11:44:08;96796.88;;;27.30;30.96
22580;BME280;11456;47.030;15.396;2023-05-15T11:46:34;96800.53;;;28.00;27.87
22580;BME280;11456;47.030;15.396;2023-05-15T11:49:02;96790.94;;;27.72;28.73
22580;BME280;11456;47.030;15.396;2023-05-15T11:51:28;96777.13;;;28.70;28.55
22580;BME280;11456;47.030;15.396;2023-05-15T11:53:56;96781.28;;;28.73;27.52
22580;BME280;11456;47.030;15.396;2023-05-15T11:56:24;96776.44;;;26.50;29.43
22580;BME280;11456;47.030;15.396;2023-05-15T11:58:52;96777.69;;;26.07;31.00
22580;BME280;11456;47.030;15.396;2023-05-15T12:01:19;96772.00;;;26.33;28.93
22580;BME280;11456;47.030;15.396;2023-05-15T12:03:46;96770.63;;;28.02;28.92
22580;BME280;11456;47.030;15.396;2023-05-15T12:06:14;96761.69;;;28.20;28.37
22580;BME280;11456;47.030;15.396;2023-05-15T12:08:40;96771.41;;;27.28;29.03
22580;BME280;11456;47.030;15.396;2023-05-15T12:11:07;96777.88;;;27.92;28.05
22580;BME280;11456;47.030;15.396;2023-05-15T12:13:34;96784.06;;;27.69;28.06
22580;BME280;11456;47.030;15.396;2023-05-15T12:16:01;96770.28;;;27.54;29.06
22580;BME280;11456;47.030;15.396;2023-05-15T12:18:32;96775.78;;;28.62;27.45
22580;BME280;11456;47.030;15.396;2023-05-15T12:20:59;96780.56;;;26.42;28.46
22580;BME280;11456;47.030;15.396;2023-05-15T12:23:25;96782.94;;;27.75;29.88
22580;BME280;11456;47.030;15.396;2023-05-15T12:25:58;96774.06;;;28.71;25.73
22580;BME280;11456;47.030;15.396;2023-05-15T12:28:26;96775.03;;;26.32;28.66
22580;BME280;11456;47.030;15.396;2023-05-15T12:30:53;96778.31;;;25.56;28.97
22580;BME280;11456;47.030;15.396;2023-05-15T12:33:20;96775.34;;;26.61;28.07
22580;BME280;11456;47.030;15.396;2023-05-15T12:35:53;96769.25;;;27.04;28.71
22580;BME280;11456;47.030;15.396;2023-05-15T12:38:26;96768.06;;;27.56;27.66
22580;BME280;11456;47.030;15.396;2023-05-15T12:40:52;96773.13;;;27.08;29.18
22580;BME280;11456;47.030;15.396;2023-05-15T12:43:22;96780.94;;;25.83;31.96
22580;BME280;11456;47.030;15.396;2023-05-15T12:45:50;96781.56;;;25.43;30.57
22580;BME280;11456;47.030;15.396;2023-05-15T12:48:17;96784.78;;;24.56;32.71
22580;BME280;11456;47.030;15.396;2023-05-15T12:50:43;96787.06;;;24.11;33.25
22580;BME280;11456;47.030;15.396;2023-05-15T12:53:11;96783.72;;;24.09;33.48
22580;BME280;11456;47.030;15.396;2023-05-15T12:55:38;96790.75;;;23.73;31.85
22580;BME280;11456;47.030;15.396;2023-05-15T12:58:06;96788.69;;;23.63;35.88
22580;BME280;11456;47.030;15.396;2023-05-15T13:00:34;96792.28;;;24.34;34.39
22580;BME280;11456;47.030;15.396;2023-05-15T13:03:01;96787.31;;;23.61;33.91
22580;BME280;11456;47.030;15.396;2023-05-15T13:05:30;96796.41;;;23.61;33.46
22580;BME280;11456;47.030;15.396;2023-05-15T13:08:01;96790.56;;;23.79;34.44
22580;BME280;11456;47.030;15.396;2023-05-15T13:10:30;96787.31;;;23.44;35.26
22580;BME280;11456;47.030;15.396;2023-05-15T13:12:57;96787.63;;;23.86;33.47
22580;BME280;11456;47.030;15.396;2023-05-15T13:15:24;96778.50;;;23.58;34.15
22580;BME280;11456;47.030;15.396;2023-05-15T13:17:52;96783.03;;;24.18;32.43
22580;BME280;11456;47.030;15.396;2023-05-15T13:20:21;96788.38;;;23.81;33.17
22580;BME280;11456;47.030;15.396;2023-05-15T13:22:49;96785.41;;;23.23;33.89
22580;BME280;11456;47.030;15.396;2023-05-15T13:25:17;96788.25;;;23.11;33.58